Time;durP1;ratioP1;P1;durP2;ratioP2;P2;SDS_P1;SDS_P2;PMS_P1;PMS_P2;Temp;Humidity;BMP_temperature;BMP_pressure;BME280_temperature;BME280_humidity;BME280_pressure;Samples;Min_cycle;Max_cycle;Signal;HPM_P1;HPM_P2
2021/05/08 00:01:40;;;;;;;6.62;3.30;;;;;;;2.74;80.15;100639.24;1829252;78;21123;-66
2021/05/08 00:04:07;;;;;;;6.85;3.60;;;;;;;2.74;80.17;100640.56;1829259;78;21167;-66
2021/05/08 00:06:34;;;;;;;6.12;3.20;;;;;;;2.73;80.19;100642.81;1828998;78;21261;-66
2021/05/08 00:09:04;;;;;;;4.78;3.20;;;;;;;2.70;80.22;100641.27;1809379;78;21108;-66
2021/05/08 00:11:31;;;;;;;5.87;2.87;;;;;;;2.71;80.27;100642.11;1787436;80;21143;-67
2021/05/08 00:13:57;;;;;;;8.85;4.97;;;;;;;2.69;80.29;100637.41;1782765;80;21219;-67
2021/05/08 00:16:24;;;;;;;7.22;3.70;;;;;;;2.68;80.31;100646.25;1755950;80;21616;-66
2021/05/08 00:18:50;;;;;;;6.85;3.35;;;;;;;2.66;80.32;100644.23;1748593;82;22273;-66
2021/05/08 00:21:16;;;;;;;5.60;2.60;;;;;;;2.65;80.36;100645.17;1769917;80;21163;-66
2021/05/08 00:23:42;;;;;;;4.58;2.98;;;;;;;2.65;80.39;100646.48;1787587;80;21603;-66
2021/05/08 00:26:09;;;;;;;4.92;2.67;;;;;;;2.64;80.42;100652.73;1755459;81;21144;-66
2021/05/08 00:28:35;;;;;;;5.20;3.30;;;;;;;2.62;80.45;100646.25;1787487;80;21176;-66
2021/05/08 00:31:01;;;;;;;5.78;3.00;;;;;;;2.60;80.49;100643.38;1787695;80;21281;-66
2021/05/08 00:33:28;;;;;;;5.20;2.70;;;;;;;2.58;80.53;100646.58;1764838;80;21196;-66
2021/05/08 00:35:55;;;;;;;5.72;2.72;;;;;;;2.58;80.58;100646.58;1756490;81;21201;-66
2021/05/08 00:38:21;;;;;;;3.42;2.33;;;;;;;2.57;80.60;100647.55;1759000;80;21116;-67
2021/05/08 00:40:47;;;;;;;5.85;2.87;;;;;;;2.58;80.63;100653.16;1770034;80;21165;-66
2021/05/08 00:43:16;;;;;;;4.97;3.08;;;;;;;2.57;80.66;100654.13;1756463;81;21185;-66
2021/05/08 00:45:42;;;;;;;6.20;3.83;;;;;;;2.58;80.71;100657.11;1807596;78;21194;-66
2021/05/08 00:48:13;;;;;;;4.85;3.17;;;;;;;2.58;80.74;100661.05;1829342;78;21186;-66
2021/05/08 00:50:39;;;;;;;5.15;3.20;;;;;;;2.58;80.77;100658.42;1829046;78;21116;-66
2021/05/08 00:53:08;;;;;;;4.33;2.92;;;;;;;2.59;80.78;100666.69;1828978;78;21182;-66
2021/05/08 00:55:38;;;;;;;7.33;3.33;;;;;;;2.60;80.85;100659.17;1825136;78;21155;-66
2021/05/08 01:00:45;;;;;;;4.83;2.95;;;;;;;2.63;80.91;100662.89;1791548;77;22286;-67
2021/05/08 01:03:11;;;;;;;6.70;3.10;;;;;;;2.58;80.95;100657.11;1771163;80;21133;-67
2021/05/08 01:05:38;;;;;;;5.78;3.08;;;;;;;2.56;80.98;100661.66;1700713;80;21713;-67
2021/05/08 01:08:04;;;;;;;8.10;3.47;;;;;;;2.55;81.00;100664.77;1778691;80;21227;-67
2021/05/08 01:10:32;;;;;;;7.15;3.75;;;;;;;2.55;81.03;100674.45;1776223;80;21104;-67
2021/05/08 01:12:59;;;;;;;8.28;4.90;;;;;;;2.54;81.04;100674.91;1777447;80;21168;-67
2021/05/08 01:15:26;;;;;;;5.22;3.50;;;;;;;2.53;81.06;100679.00;1775747;80;21128;-67
2021/05/08 01:17:52;;;;;;;7.08;3.60;;;;;;;2.50;81.10;100679.56;1775179;80;22190;-67
2021/05/08 01:20:20;;;;;;;6.60;3.42;;;;;;;2.48;81.11;100677.53;1776685;80;21181;-67
2021/05/08 01:22:49;;;;;;;4.53;3.17;;;;;;;2.49;81.14;100681.86;1775730;80;21131;-67
2021/05/08 01:25:21;;;;;;;9.08;3.83;;;;;;;2.47;81.14;100682.42;1719927;83;21209;-67
2021/05/08 01:27:50;;;;;;;5.97;3.02;;;;;;;2.47;81.16;100679.79;1694232;84;21183;-67
2021/05/08 01:30:19;;;;;;;6.53;2.90;;;;;;;2.49;81.19;100682.33;1719932;83;21610;-67
2021/05/08 01:32:46;;;;;;;5.83;3.53;;;;;;;2.49;81.20;100689.75;1720126;83;21177;-67
2021/05/08 01:35:12;;;;;;;8.03;3.58;;;;;;;2.48;81.22;100681.95;1719711;83;21172;-67
2021/05/08 01:37:39;;;;;;;5.47;3.10;;;;;;;2.49;81.25;100685.80;1719936;83;21212;-67
2021/05/08 01:40:10;;;;;;;6.22;3.52;;;;;;;2.50;81.26;100689.25;1719475;83;21152;-67
2021/05/08 01:42:36;;;;;;;4.58;3.15;;;;;;;2.51;81.27;100695.73;1719891;83;23434;-67
2021/05/08 01:45:16;;;;;;;5.65;3.83;;;;;;;2.53;81.30;100693.81;1719662;83;21181;-67
2021/05/08 01:47:43;;;;;;;4.55;3.37;;;;;;;2.53;81.31;100693.81;1719760;83;21236;-67
2021/05/08 01:50:18;;;;;;;5.92;3.60;;;;;;;2.53;81.33;100692.16;1719896;83;21155;-67
2021/05/08 01:52:44;;;;;;;6.50;4.03;;;;;;;2.53;81.36;100701.37;1719899;83;21613;-67
2021/05/08 01:55:18;;;;;;;7.37;4.08;;;;;;;2.52;81.37;100697.89;1719987;83;21224;-67
2021/05/08 01:57:47;;;;;;;6.28;4.40;;;;;;;2.52;81.37;100699.20;1719153;83;21191;-67
2021/05/08 02:00:21;;;;;;;7.67;3.93;;;;;;;2.51;81.39;100697.05;1702810;83;21248;-67
2021/05/08 02:02:49;;;;;;;6.03;4.20;;;;;;;2.48;81.39;100695.95;1664147;84;21187;-67
2021/05/08 02:05:15;;;;;;;5.58;4.30;;;;;;;2.47;81.40;100699.53;1694094;84;21148;-67
2021/05/08 02:07:41;;;;;;;8.50;4.75;;;;;;;2.48;81.42;100697.27;1669901;85;21257;-67
2021/05/08 02:10:10;;;;;;;9.28;4.95;;;;;;;2.48;81.43;100707.80;1695961;84;21164;-67
2021/05/08 02:12:37;;;;;;;6.67;4.12;;;;;;;2.46;81.44;100700.47;1693555;84;21156;-67
2021/05/08 02:15:09;;;;;;;7.37;4.40;;;;;;;2.46;81.45;100708.37;1669179;86;21782;-67
2021/05/08 02:17:36;;;;;;;6.53;3.92;;;;;;;2.45;81.46;100708.03;1669457;85;21200;-67
2021/05/08 02:20:10;;;;;;;6.95;3.80;;;;;;;2.46;81.49;100704.42;1664023;86;21301;-67
2021/05/08 02:22:37;;;;;;;6.87;4.30;;;;;;;2.49;81.47;100707.33;1668355;84;21642;-67
2021/05/08 02:25:06;;;;;;;8.00;4.45;;;;;;;2.55;81.49;100703.40;1695666;83;21163;-67
2021/05/08 02:27:33;;;;;;;6.42;4.70;;;;;;;2.58;81.49;100700.54;1693550;84;21188;-67
2021/05/08 02:30:00;;;;;;;9.30;4.30;;;;;;;2.62;81.49;100704.63;1669517;86;21236;-67
2021/05/08 02:32:27;;;;;;;8.18;4.58;;;;;;;2.63;81.51;100705.85;1695619;84;21312;-67
2021/05/08 02:34:54;;;;;;;7.45;5.60;;;;;;;2.63;81.50;100705.01;1693383;84;22473;-67
2021/05/08 02:37:20;;;;;;;6.67;5.30;;;;;;;2.59;81.51;100707.50;1669127;86;21163;-67
2021/05/08 02:39:46;;;;;;;9.58;4.42;;;;;;;2.57;81.52;100708.09;1693383;84;21156;-67
2021/05/08 02:42:13;;;;;;;8.55;5.15;;;;;;;2.53;81.55;100705.66;1669403;86;21147;-67
2021/05/08 02:44:39;;;;;;;7.47;5.03;;;;;;;2.51;81.54;100708.89;1693450;84;21228;-67
2021/05/08 02:47:17;;;;;;;10.78;5.42;;;;;;;2.49;81.56;100711.28;1693505;84;21600;-67
2021/05/08 02:49:33;;;;;;;7.85;5.20;;;;;;;2.47;81.56;100715.33;1667067;86;21185;-67
2021/05/08 02:52:00;;;;;;;9.88;4.70;;;;;;;2.46;81.57;100716.27;1693449;84;21128;-67
2021/05/08 02:54:26;;;;;;;6.80;5.15;;;;;;;2.43;81.58;100716.96;1693271;84;21628;-67
2021/05/08 02:56:53;;;;;;;7.67;5.17;;;;;;;2.41;81.60;100721.03;1669355;86;21220;-67
2021/05/08 02:59:19;;;;;;;8.15;5.35;;;;;;;2.38;81.58;100718.63;1696978;83;21278;-67
2021/05/08 03:01:45;;;;;;;7.47;4.85;;;;;;;2.36;81.60;100724.46;1693290;84;21224;-67
2021/05/08 03:04:12;;;;;;;6.45;4.72;;;;;;;2.36;81.59;100725.77;1693674;84;21149;-67
2021/05/08 03:06:38;;;;;;;6.67;4.62;;;;;;;2.34;81.61;100727.69;1719026;83;21170;-67
2021/05/08 03:09:05;;;;;;;9.93;5.50;;;;;;;2.31;81.59;100722.65;1719109;83;21208;-67
2021/05/08 03:11:31;;;;;;;11.83;5.28;;;;;;;2.29;81.60;100725.84;1719076;83;21156;-67
2021/05/08 03:13:57;;;;;;;6.72;4.90;;;;;;;2.28;81.62;100730.77;1719153;83;21128;-67
2021/05/08 03:16:23;;;;;;;10.25;4.72;;;;;;;2.28;81.61;100726.81;1719212;83;21200;-67
2021/05/08 03:18:50;;;;;;;8.78;4.60;;;;;;;2.28;81.62;100722.88;1718862;83;21184;-67
2021/05/08 03:21:16;;;;;;;8.13;5.55;;;;;;;2.27;81.62;100729.08;1718863;83;21272;-67
2021/05/08 03:23:42;;;;;;;10.35;5.08;;;;;;;2.26;81.63;100735.28;1718983;83;21184;-67
2021/05/08 03:26:09;;;;;;;10.08;5.00;;;;;;;2.27;81.61;100733.02;1719209;83;21183;-67
2021/05/08 03:28:35;;;;;;;9.45;4.90;;;;;;;2.27;81.63;100740.91;1719101;83;21188;-67
2021/05/08 03:31:01;;;;;;;8.25;4.80;;;;;;;2.30;81.63;100739.38;1719339;83;21595;-67
2021/05/08 03:33:28;;;;;;;8.40;4.75;;;;;;;2.32;81.64;100745.86;1719148;83;21218;-67
2021/05/08 03:35:54;;;;;;;11.25;6.22;;;;;;;2.32;81.64;100749.30;1719118;83;21645;-67
2021/05/08 03:38:21;;;;;;;11.20;5.47;;;;;;;2.34;81.63;100751.38;1719202;83;21147;-67
2021/05/08 03:40:47;;;;;;;8.55;4.22;;;;;;;2.37;81.64;100748.52;1719047;83;21179;-67
2021/05/08 03:43:13;;;;;;;6.95;4.65;;;;;;;2.41;81.62;100748.67;1719327;83;21193;-67
2021/05/08 03:45:40;;;;;;;8.90;6.17;;;;;;;2.43;81.65;100749.39;1718931;83;21625;-67
2021/05/08 03:48:07;;;;;;;9.78;5.92;;;;;;;2.49;81.65;100745.02;1719180;83;21224;-67
2021/05/08 03:50:33;;;;;;;8.30;5.25;;;;;;;2.68;81.73;100751.57;1719138;83;21156;-67
2021/05/08 03:52:59;;;;;;;8.43;5.05;;;;;;;3.13;81.96;100757.42;1719094;83;21179;-67
2021/05/08 03:55:26;;;;;;;9.48;4.67;;;;;;;3.52;81.92;100749.16;1719144;83;21192;-67
2021/05/08 03:57:52;;;;;;;5.75;4.83;;;;;;;4.27;82.08;100749.95;1719293;83;22367;-67
2021/05/08 04:00:20;;;;;;;7.62;4.35;;;;;;;5.01;82.04;100750.03;1720961;83;21196;-68
2021/05/08 04:02:46;;;;;;;7.37;4.53;;;;;;;5.72;81.87;100751.12;1724238;83;21147;-67
2021/05/08 04:05:13;;;;;;;7.97;5.50;;;;;;;6.48;81.78;100757.75;1724635;83;21184;-68
2021/05/08 04:07:40;;;;;;;10.63;7.20;;;;;;;7.20;81.50;100758.30;1724425;82;21132;-68
2021/05/08 04:10:07;;;;;;;8.98;6.87;;;;;;;7.68;81.21;100758.25;1724614;82;21216;-68
2021/05/08 04:12:34;;;;;;;6.47;4.53;;;;;;;8.27;80.99;100759.25;1724617;82;21187;-68
2021/05/08 04:15:00;;;;;;;6.67;4.15;;;;;;;8.77;80.59;100754.91;1724551;82;21135;-68
2021/05/08 04:17:27;;;;;;;5.92;4.05;;;;;;;9.20;80.24;100755.52;1724529;83;21625;-68
2021/05/08 04:19:53;;;;;;;7.72;4.70;;;;;;;9.48;79.77;100761.92;1724520;83;21151;-68
2021/05/08 04:22:20;;;;;;;6.08;3.95;;;;;;;9.60;79.10;100765.19;1724552;83;21994;-68
2021/05/08 04:24:46;;;;;;;6.62;4.08;;;;;;;9.79;78.79;100764.14;1723916;82;21203;-69
2021/05/08 04:27:13;;;;;;;9.40;5.03;;;;;;;10.00;78.25;100767.28;1724662;83;21175;-68
2021/05/08 04:29:39;;;;;;;8.55;6.47;;;;;;;10.25;77.77;100767.80;1724448;83;21159;-68
2021/05/08 04:32:05;;;;;;;9.60;4.58;;;;;;;10.65;77.26;100772.48;1724401;82;21620;-68
2021/05/08 04:34:32;;;;;;;4.92;3.70;;;;;;;10.88;76.49;100778.05;1724533;83;21210;-69
2021/05/08 04:36:58;;;;;;;4.97;3.60;;;;;;;11.06;75.92;100782.77;1724362;83;21132;-68
2021/05/08 04:39:25;;;;;;;7.50;4.97;;;;;;;10.91;75.13;100784.38;1724567;83;21195;-69
2021/05/08 04:41:51;;;;;;;6.08;4.33;;;;;;;10.99;74.43;100789.75;1724443;83;21128;-69
2021/05/08 04:44:18;;;;;;;9.80;4.17;;;;;;;11.11;73.76;100788.95;1724590;83;21200;-69
2021/05/08 04:46:44;;;;;;;5.08;3.92;;;;;;;11.08;72.41;100784.79;1724449;83;21236;-69
2021/05/08 04:49:10;;;;;;;6.33;4.22;;;;;;;10.58;71.48;100786.62;1724492;83;21184;-69
2021/05/08 04:51:37;;;;;;;5.95;5.30;;;;;;;9.89;71.44;100787.52;1724554;83;21148;-69
2021/05/08 04:54:04;;;;;;;5.80;4.45;;;;;;;9.27;71.68;100794.67;1724419;83;21145;-69
2021/05/08 04:56:30;;;;;;;7.00;4.72;;;;;;;8.84;71.86;100795.87;1724585;83;21128;-69
2021/05/08 04:58:56;;;;;;;10.48;5.08;;;;;;;8.71;72.04;100794.91;1724186;83;21241;-69
2021/05/08 05:01:23;;;;;;;6.62;4.90;;;;;;;8.69;72.05;100793.39;1720683;83;21175;-68
2021/05/08 05:03:49;;;;;;;8.03;4.90;;;;;;;8.80;72.04;100799.31;1719061;83;21617;-69
2021/05/08 05:06:15;;;;;;;7.40;4.78;;;;;;;8.78;71.87;100807.11;1719181;83;21518;-69
2021/05/08 05:08:42;;;;;;;6.90;4.53;;;;;;;9.01;71.78;100805.70;1718999;83;21131;-69
2021/05/08 05:11:08;;;;;;;8.20;4.15;;;;;;;9.10;71.82;100802.64;1719161;83;21206;-69
2021/05/08 05:13:34;;;;;;;7.78;5.03;;;;;;;9.03;71.69;100810.39;1719098;83;21227;-69
2021/05/08 05:16:01;;;;;;;7.92;5.67;;;;;;;9.07;71.63;100801.62;1718835;83;21145;-69
2021/05/08 05:18:32;;;;;;;5.80;4.35;;;;;;;9.09;71.53;100805.80;1719175;83;21152;-69
2021/05/08 05:20:58;;;;;;;5.87;4.53;;;;;;;9.35;71.37;100804.08;1719089;83;21140;-69
2021/05/08 05:23:25;;;;;;;5.95;4.60;;;;;;;9.32;71.11;100808.34;1718947;83;21212;-69
2021/05/08 05:25:51;;;;;;;8.88;6.10;;;;;;;9.33;71.04;100806.03;1719025;83;21156;-69
2021/05/08 05:28:26;;;;;;;9.68;6.35;;;;;;;9.47;70.90;100817.48;1719175;83;21472;-69
2021/05/08 05:30:52;;;;;;;9.50;6.95;;;;;;;9.50;70.73;100810.52;1718987;83;21156;-69
2021/05/08 05:33:19;;;;;;;9.65;5.90;;;;;;;9.51;70.46;100817.52;1719112;83;21128;-69
2021/05/08 05:35:49;;;;;;;6.67;4.60;;;;;;;9.56;70.36;100820.22;1719192;83;21275;-69
2021/05/08 05:38:16;;;;;;;;;;;;;;;9.46;70.17;100826.45;1721484;83;21188;-69
2021/05/08 05:40:43;;;;;;;8.43;4.92;;;;;;;9.51;70.03;100822.00;1717410;83;20629;-69
2021/05/08 05:43:10;;;;;;;9.65;4.60;;;;;;;9.50;69.84;100823.83;1673778;85;21163;-69
2021/05/08 05:45:36;;;;;;;8.20;5.00;;;;;;;9.48;69.67;100827.64;1708061;83;21621;-69
2021/05/08 05:48:04;;;;;;;8.43;4.65;;;;;;;9.48;69.56;100825.81;1700235;83;21183;-69
2021/05/08 05:50:33;;;;;;;7.55;4.45;;;;;;;9.62;69.45;100834.25;1677482;84;21145;-70
2021/05/08 05:53:00;;;;;;;5.60;4.70;;;;;;;9.80;69.22;100837.73;1685257;84;21204;-69
2021/05/08 05:55:26;;;;;;;8.55;5.10;;;;;;;9.87;69.08;100831.64;1669050;85;21192;-69
2021/05/08 05:57:54;;;;;;;6.72;4.83;;;;;;;9.83;68.80;100840.93;1686220;84;21184;-69
2021/05/08 06:00:20;;;;;;;7.17;5.42;;;;;;;9.79;68.68;100840.05;1689411;84;22109;-69
2021/05/08 06:02:47;;;;;;;11.18;6.78;;;;;;;9.77;68.57;100843.37;1698250;84;21167;-69
2021/05/08 06:05:14;;;;;;;7.40;5.17;;;;;;;9.83;68.39;100842.75;1700233;84;21212;-69
2021/05/08 06:07:40;;;;;;;8.10;5.25;;;;;;;9.77;68.23;100855.36;1700272;84;21160;-69
2021/05/08 06:10:10;;;;;;;10.48;7.85;;;;;;;9.82;68.11;100843.73;1700480;84;21156;-69
2021/05/08 06:12:36;;;;;;;9.53;4.70;;;;;;;9.95;67.99;100845.53;1700558;84;21199;-69
2021/05/08 06:15:06;;;;;;;9.13;7.55;;;;;;;10.07;67.85;100850.93;1700266;84;21844;-69
2021/05/08 06:17:32;;;;;;;;;;;;;;;10.21;67.77;100858.88;1702450;84;21203;-69
2021/05/08 06:19:59;;;;;;;9.28;5.60;;;;;;;10.19;67.61;100856.88;1700309;83;20278;-69
2021/05/08 06:22:25;;;;;;;10.28;5.60;;;;;;;10.21;67.54;100857.55;1689781;84;21232;-69
2021/05/08 06:24:52;;;;;;;7.40;5.05;;;;;;;10.49;67.57;100856.39;1688429;84;22109;-70
2021/05/08 06:27:18;;;;;;;7.62;4.75;;;;;;;10.61;67.33;100856.48;1673207;84;21165;-70
2021/05/08 06:29:44;;;;;;;8.38;4.05;;;;;;;10.62;67.16;100861.31;1679856;84;21180;-69
2021/05/08 06:32:10;;;;;;;6.45;4.03;;;;;;;10.53;66.97;100861.27;1700391;84;21172;-70
2021/05/08 06:34:36;;;;;;;19.02;4.87;;;;;;;10.53;66.86;100866.59;1683788;84;21149;-69
2021/05/08 06:37:03;;;;;;;8.53;4.25;;;;;;;10.66;66.72;100860.02;1672065;85;21210;-69
2021/05/08 06:39:29;;;;;;;7.45;4.25;;;;;;;10.66;66.41;100860.81;1697665;84;21633;-69
2021/05/08 06:41:56;;;;;;;7.22;3.80;;;;;;;10.51;66.26;100863.77;1691641;84;21227;-69
2021/05/08 06:44:25;;;;;;;8.13;3.98;;;;;;;10.14;66.18;100871.13;1679686;84;21693;-69
2021/05/08 06:46:54;;;;;;;7.05;4.70;;;;;;;9.91;66.17;100866.31;1686250;85;21156;-69
2021/05/08 06:49:20;;;;;;;9.25;4.87;;;;;;;9.71;66.09;100870.63;1683335;84;21212;-70
2021/05/08 06:51:46;;;;;;;9.28;6.03;;;;;;;9.45;65.93;100866.06;1686073;85;22068;-69
2021/05/08 06:54:13;;;;;;;11.53;6.20;;;;;;;9.36;65.90;100872.27;1686352;85;21201;-69
2021/05/08 06:56:39;;;;;;;11.20;7.90;;;;;;;9.41;65.89;100869.16;1673651;84;21177;-69
2021/05/08 06:59:05;;;;;;;11.75;7.47;;;;;;;9.44;65.80;100878.17;1691137;84;21133;-69
2021/05/08 07:01:31;;;;;;;11.55;6.50;;;;;;;9.47;65.71;100878.71;1693512;83;21195;-69
2021/05/08 07:03:58;;;;;;;9.63;4.17;;;;;;;9.62;65.74;100878.19;1679758;84;21191;-69
2021/05/08 07:06:24;;;;;;;7.65;4.95;;;;;;;9.77;65.72;100876.18;1671390;84;21747;-69
2021/05/08 07:08:52;;;;;;;9.65;5.47;;;;;;;10.09;65.64;100872.95;1687311;84;21152;-69
2021/05/08 07:11:18;;;;;;;10.58;5.87;;;;;;;10.28;65.48;100879.43;1680947;84;21188;-69
2021/05/08 07:13:45;;;;;;;9.55;4.83;;;;;;;10.41;65.45;100870.52;1700006;83;22097;-69
2021/05/08 07:16:12;;;;;;;9.10;4.70;;;;;;;10.60;65.31;100874.80;1700215;84;21177;-69
2021/05/08 07:18:38;;;;;;;9.63;5.33;;;;;;;10.43;65.14;100873.88;1697979;83;21581;-69
2021/05/08 07:21:04;;;;;;;7.67;4.45;;;;;;;10.19;65.05;100873.72;1684574;84;21163;-69
2021/05/08 07:23:31;;;;;;;9.23;4.78;;;;;;;10.61;65.02;100878.30;1699466;84;21171;-69
2021/05/08 07:25:57;;;;;;;6.85;4.30;;;;;;;10.96;64.81;100880.81;1696288;82;21197;-69
2021/05/08 07:28:24;;;;;;;8.28;3.67;;;;;;;11.11;64.60;100881.05;1692194;84;21204;-70
2021/05/08 07:30:52;;;;;;;6.03;3.30;;;;;;;10.98;64.39;100876.14;1698884;84;21157;-70
2021/05/08 07:33:19;;;;;;;8.05;4.00;;;;;;;11.02;64.27;100874.83;1688470;82;21189;-69
2021/05/08 07:35:45;;;;;;;6.08;3.33;;;;;;;11.33;64.28;100869.25;1682419;82;21163;-70
2021/05/08 07:38:12;;;;;;;8.33;4.25;;;;;;;11.57;64.02;100874.33;1691953;84;21152;-70
2021/05/08 07:40:40;;;;;;;8.38;3.45;;;;;;;11.69;63.80;100878.33;1694631;84;21183;-70
2021/05/08 07:43:08;;;;;;;10.18;3.40;;;;;;;11.73;63.63;100879.21;1689061;84;21172;-70
2021/05/08 07:45:34;;;;;;;8.13;3.72;;;;;;;11.81;63.49;100883.73;1673948;84;21228;-70
2021/05/08 07:48:01;;;;;;;11.43;4.70;;;;;;;11.88;63.26;100883.41;1700475;84;21183;-70
2021/05/08 07:50:28;;;;;;;5.00;3.02;;;;;;;11.97;63.17;100865.02;1706786;83;22072;-69
2021/05/08 07:52:55;;;;;;;6.37;3.37;;;;;;;11.87;62.98;100869.70;1706910;84;21194;-70
2021/05/08 07:55:21;;;;;;;8.30;3.27;;;;;;;11.91;62.85;100883.06;1705067;84;21568;-70
2021/05/08 07:57:47;;;;;;;9.13;3.55;;;;;;;11.94;62.63;100882.73;1689260;84;21496;-70
2021/05/08 08:00:15;;;;;;;8.15;2.42;;;;;;;12.07;62.45;100884.39;1692889;82;21174;-70
2021/05/08 08:02:42;;;;;;;5.87;3.17;;;;;;;12.13;62.23;100874.38;1709527;82;21209;-70
2021/05/08 08:05:09;;;;;;;8.90;3.30;;;;;;;12.25;62.11;100874.35;1711022;83;21163;-70
2021/05/08 08:07:35;;;;;;;7.33;2.55;;;;;;;12.48;62.04;100874.00;1682999;83;21239;-70
2021/05/08 08:10:03;;;;;;;9.10;3.45;;;;;;;12.52;61.73;100873.16;1688418;84;21143;-70
2021/05/08 08:12:29;;;;;;;8.15;4.25;;;;;;;12.57;61.41;100876.13;1682060;83;21233;-70
2021/05/08 08:14:56;;;;;;;8.45;3.08;;;;;;;12.45;61.05;100875.65;1683718;84;21344;-70
2021/05/08 08:17:22;;;;;;;8.28;3.22;;;;;;;12.55;60.86;100871.97;1682239;84;21167;-70
2021/05/08 08:19:48;;;;;;;46.55;12.53;;;;;;;12.58;60.21;100874.30;1692997;84;21200;-70
2021/05/08 08:22:15;;;;;;;14.68;5.90;;;;;;;12.47;59.88;100879.50;1677097;84;22016;-70
2021/05/08 08:24:42;;;;;;;11.75;4.83;;;;;;;12.40;59.32;100862.47;1680543;84;21235;-70
2021/05/08 08:27:10;;;;;;;9.13;4.37;;;;;;;11.96;58.92;100874.06;1689208;82;21190;-70
2021/05/08 08:29:36;;;;;;;12.33;4.55;;;;;;;11.76;58.69;100879.38;1695298;84;21176;-70
2021/05/08 08:32:04;;;;;;;8.00;3.77;;;;;;;11.57;58.44;100886.34;1686496;84;21187;-70
2021/05/08 08:34:30;;;;;;;9.03;3.20;;;;;;;11.27;58.14;100885.09;1692790;84;21160;-69
2021/05/08 08:36:56;;;;;;;11.28;3.87;;;;;;;10.96;58.00;100889.66;1685538;84;21636;-69
2021/05/08 08:39:23;;;;;;;10.15;4.08;;;;;;;10.64;57.78;100885.98;1695114;84;22073;-69
2021/05/08 08:41:54;;;;;;;9.78;5.20;;;;;;;10.52;57.76;100890.25;1688432;84;21207;-69
2021/05/08 08:44:20;;;;;;;5.95;3.08;;;;;;;10.71;57.88;100888.36;1687061;84;21140;-69
2021/05/08 08:46:47;;;;;;;8.58;2.87;;;;;;;10.71;57.73;100896.36;1682819;84;21226;-69
2021/05/08 08:49:14;;;;;;;10.58;4.15;;;;;;;10.66;57.64;100890.69;1689746;84;21180;-69
2021/05/08 08:51:41;;;;;;;22.02;5.00;;;;;;;10.73;57.62;100891.20;1694715;84;22025;-69
2021/05/08 08:54:08;;;;;;;6.28;3.25;;;;;;;10.68;57.55;100900.69;1684365;84;21193;-69
2021/05/08 08:56:42;;;;;;;20.70;7.17;;;;;;;10.52;57.36;100908.08;1671316;85;21229;-69
2021/05/08 08:59:20;;;;;;;7.87;3.17;;;;;;;10.39;57.29;100909.84;1697294;84;21303;-69
2021/05/08 09:01:46;;;;;;;17.77;6.53;;;;;;;10.29;57.14;100909.59;1670039;85;21199;-69
2021/05/08 09:04:14;;;;;;;55.05;15.85;;;;;;;10.26;57.05;100905.91;1666917;84;22572;-69
2021/05/08 09:06:43;;;;;;;11.03;4.03;;;;;;;10.30;57.02;100898.79;1670323;84;21226;-68
2021/05/08 09:09:10;;;;;;;28.02;5.87;;;;;;;10.38;56.89;100897.49;1676041;85;21208;-69
2021/05/08 09:11:55;;;;;;;8.38;4.42;;;;;;;10.40;56.71;100908.02;1673612;85;21602;-69
2021/05/08 09:14:30;;;;;;;7.72;3.67;;;;;;;10.63;56.65;100897.64;1675487;85;21569;-69
2021/05/08 09:17:14;;;;;;;18.17;6.58;;;;;;;10.65;56.48;100907.18;1683542;83;21293;-68
2021/05/08 09:19:54;;;;;;;7.85;3.77;;;;;;;10.90;56.61;100901.48;1694927;83;21174;-69
2021/05/08 09:22:38;;;;;;;9.80;4.15;;;;;;;11.50;56.63;100901.66;1695741;84;21174;-69
2021/05/08 09:25:11;;;;;;;15.93;6.10;;;;;;;12.01;56.40;100894.42;1696046;84;21187;-68
2021/05/08 09:27:46;;;;;;;10.03;5.25;;;;;;;12.49;56.06;100894.37;1693176;84;21213;-69
2021/05/08 09:30:18;;;;;;;7.25;4.37;;;;;;;12.44;55.31;100894.56;1697928;82;21470;-69
2021/05/08 09:33:01;;;;;;;5.95;2.87;;;;;;;12.01;54.78;100889.08;1701920;82;21170;-69
2021/05/08 09:35:36;;;;;;;17.05;5.70;;;;;;;11.83;54.57;100895.91;1675332;85;21649;-68
2021/05/08 09:38:12;;;;;;;6.33;3.27;;;;;;;11.95;54.43;100905.79;1684124;85;21680;-68
2021/05/08 09:40:41;;;;;;;17.40;6.67;;;;;;;11.92;54.25;100895.44;1683811;85;21199;-68
2021/05/08 09:43:17;;;;;;;9.38;4.10;;;;;;;11.75;54.12;100907.12;1671962;84;22092;-68
2021/05/08 09:45:47;;;;;;;15.10;7.97;;;;;;;11.52;54.06;100905.03;1682305;85;21728;-68
2021/05/08 09:48:26;;;;;;;6.42;4.20;;;;;;;11.29;54.03;100904.47;1684774;85;21175;-68
2021/05/08 09:50:53;;;;;;;6.60;4.17;;;;;;;11.16;54.04;100903.57;1678486;84;21741;-68
2021/05/08 09:53:30;;;;;;;8.10;3.85;;;;;;;11.41;54.17;100909.34;1671421;85;21142;-68
2021/05/08 09:55:56;;;;;;;9.58;4.92;;;;;;;11.76;54.05;100889.56;1656072;86;22157;-68
2021/05/08 09:58:24;;;;;;;13.10;4.95;;;;;;;12.04;53.96;100896.76;1656974;86;21191;-68
2021/05/08 10:00:51;;;;;;;9.25;4.33;;;;;;;12.38;54.00;100886.73;1680964;83;21639;-68
2021/05/08 10:03:19;;;;;;;8.38;3.80;;;;;;;12.59;53.80;100882.17;1697408;83;21159;-68
2021/05/08 10:06:06;;;;;;;4.83;2.83;;;;;;;12.58;53.62;100879.65;1721460;83;21167;-69
2021/05/08 10:08:32;;;;;;;15.28;6.55;;;;;;;12.26;53.36;100877.37;1721663;83;21436;-68
2021/05/08 10:10:59;;;;;;;25.08;11.15;;;;;;;12.26;53.37;100880.05;1715471;83;21211;-68
2021/05/08 10:13:27;;;;;;;9.38;4.40;;;;;;;12.10;53.19;100884.58;1704684;83;21215;-68
2021/05/08 10:15:53;;;;;;;8.10;4.05;;;;;;;12.07;53.14;100885.72;1721317;81;21175;-68
2021/05/08 10:18:19;;;;;;;9.95;4.90;;;;;;;12.29;53.02;100883.71;1702671;83;21156;-68
2021/05/08 10:20:46;;;;;;;7.53;3.77;;;;;;;12.58;52.70;100879.16;1713377;83;21227;-68
2021/05/08 10:23:12;;;;;;;8.98;3.37;;;;;;;12.75;52.64;100875.92;1718000;83;21441;-68
2021/05/08 10:25:42;;;;;;;9.00;3.60;;;;;;;12.68;52.46;100866.91;1704293;83;21175;-68
2021/05/08 10:28:08;;;;;;;10.20;4.35;;;;;;;12.72;52.35;100870.91;1694543;84;21139;-68
2021/05/08 10:30:42;;;;;;;6.55;3.37;;;;;;;12.67;52.15;100871.42;1699890;84;21171;-68
2021/05/08 10:33:14;;;;;;;12.65;5.00;;;;;;;12.69;51.94;100873.94;1697616;84;21433;-68
2021/05/08 10:35:44;;;;;;;7.30;3.85;;;;;;;12.87;51.80;100871.88;1696302;84;21156;-68
2021/05/08 10:38:24;;;;;;;8.03;4.50;;;;;;;13.07;51.64;100859.73;1700031;84;21124;-68
2021/05/08 10:41:07;;;;;;;7.45;3.52;;;;;;;13.09;51.33;100855.55;1699821;84;21119;-68
2021/05/08 10:43:54;;;;;;;10.53;3.67;;;;;;;13.14;50.87;100852.70;1708057;84;21131;-68
2021/05/08 10:46:23;;;;;;;4.30;2.33;;;;;;;13.19;50.51;100859.72;1708029;84;22151;-68
2021/05/08 10:49:16;;;;;;;5.45;2.67;;;;;;;13.40;50.32;100849.22;1708116;84;21564;-68
2021/05/08 10:51:56;;;;;;;6.15;2.15;;;;;;;13.47;49.98;100854.16;1707847;84;21186;-68
2021/05/08 10:54:43;;;;;;;5.65;2.85;;;;;;;13.67;49.88;100850.52;1707658;84;21178;-69
2021/05/08 11:00:10;;;;;;;6.42;3.67;;;;;;;13.67;49.23;100847.01;1816207;77;22428;-68
2021/05/08 11:02:48;;;;;;;6.35;2.90;;;;;;;13.66;49.05;100843.98;1788402;80;21518;-68
2021/05/08 11:05:39;;;;;;;3.45;2.58;;;;;;;13.92;49.05;100850.67;1788206;80;21186;-68
2021/05/08 11:08:30;;;;;;;3.70;2.50;;;;;;;14.09;48.66;100847.83;1788413;80;21564;-68
2021/05/08 11:11:02;;;;;;;12.85;3.70;;;;;;;13.91;48.37;100846.31;1788291;80;21183;-68
2021/05/08 11:13:46;;;;;;;6.12;2.62;;;;;;;13.81;48.27;100848.41;1786915;80;21135;-69
2021/05/08 11:16:31;;;;;;;6.65;3.52;;;;;;;13.75;48.23;100844.28;1788139;80;21195;-68
2021/05/08 11:19:00;;;;;;;10.30;4.03;;;;;;;13.74;48.25;100843.94;1788322;80;21095;-69
2021/05/08 11:21:32;;;;;;;5.55;2.55;;;;;;;13.85;48.22;100839.50;1788253;80;21127;-69
2021/05/08 11:24:06;;;;;;;9.35;4.12;;;;;;;13.87;48.26;100843.66;1788451;80;20914;-69
2021/05/08 11:26:35;;;;;;;9.70;4.03;;;;;;;13.98;48.17;100843.73;1764316;80;21162;-68
2021/05/08 11:29:21;;;;;;;9.28;3.67;;;;;;;14.14;48.17;100836.90;1757210;81;21159;-69
2021/05/08 11:31:53;;;;;;;9.85;4.20;;;;;;;13.93;47.45;100846.14;1756974;81;21204;-68
2021/05/08 11:34:29;;;;;;;5.45;3.70;;;;;;;13.93;47.45;100846.14;1756428;81;21115;-68
2021/05/08 11:37:09;;;;;;;5.30;2.75;;;;;;;13.96;47.35;100846.61;1757172;81;21132;-68
2021/05/08 11:39:37;;;;;;;3.55;2.25;;;;;;;14.01;47.25;100837.50;1703191;84;21148;-69
2021/05/08 11:42:16;;;;;;;6.00;3.37;;;;;;;14.21;47.29;100841.86;1703407;84;21184;-69